PWSweather.com
Personal Weather Stations
Station Observations
KCAWESTM9
Westminster, CA

Westminster, CA

Lat: 33.75980759, Lon: -118.03708649

Elevation: 26

Station Type:

Latest ConditionsUpdated 5:17:00 AM PDT Saturday, Jul 20, 2019
Currently Today's Max Today's Min Today's Average
Temperature 66.7°F19.3°C 66.9°F19.4°C 66.6°F19.2°C 66.7°F19.3°C
Dew Point 58.3°F14.6°C 60.1°F15.6°C 58.3°F14.6°C 59.4°F15.2°C
Winds 0.7 mph W1.1 kmh W 1.3 mph -2.1 kmh - - 1.2 mph 1.9 kmh
Wind Gusts 3.1 mph5.0 kmh 3.8 mph6.1 kmh - -
Humidity 79% 83% 79% 82%
Pressure 30.03 in1016.9 mb 30.04 in1017.3 mb 30.02 in1016.6 mb -
Hour Temp Dew Point Humidity Winds Wind Gusts Pressure Precip Precip Rate Daily Precip Total
05:17 AM 66.7°F19.3°C 58.3°F14.6°C 79% 0.7 mph W1.1 kmh W 3.1 mph5.0 kmh 30.03 in1016.9 mb 0.00 in0.0 mm 0.00 in0.0 mm 0.00 in0.0 mm
05:07 AM 66.7°F19.3°C 58.8°F14.9°C 80% 1.3 mph W2.1 kmh W 3.1 mph5.0 kmh 30.03 in1016.9 mb 0.00 in0.0 mm 0.00 in0.0 mm 0.00 in0.0 mm
04:57 AM 66.7°F19.3°C 58.8°F14.9°C 80% 1.3 mph W2.1 kmh W 3.1 mph5.0 kmh 30.03 in1016.9 mb 0.00 in0.0 mm 0.00 in0.0 mm 0.00 in0.0 mm
04:47 AM 66.7°F19.3°C 58.8°F14.9°C 80% 1.3 mph W2.1 kmh W 3.1 mph5.0 kmh 30.03 in1016.9 mb 0.00 in0.0 mm 0.00 in0.0 mm 0.00 in0.0 mm
04:37 AM 66.7°F19.3°C 58.8°F14.9°C 80% 1.3 mph WSW2.1 kmh WSW 3.8 mph6.1 kmh 30.03 in1016.9 mb 0.00 in0.0 mm 0.00 in0.0 mm 0.00 in0.0 mm
04:27 AM 66.7°F19.3°C 59.2°F15.1°C 81% 1.3 mph W2.1 kmh W 2.5 mph4.0 kmh 30.03 in1016.9 mb 0.00 in0.0 mm 0.00 in0.0 mm 0.00 in0.0 mm
04:17 AM 66.7°F19.3°C 59.2°F15.1°C 81% 1.3 mph W2.1 kmh W 3.8 mph6.1 kmh 30.03 in1016.9 mb 0.00 in0.0 mm 0.00 in0.0 mm 0.00 in0.0 mm
04:06 AM 66.7°F19.3°C 59.2°F15.1°C 81% 1.3 mph W2.1 kmh W 2.5 mph4.0 kmh 30.02 in1016.6 mb 0.00 in0.0 mm 0.00 in0.0 mm 0.00 in0.0 mm
03:56 AM 66.7°F19.3°C 59.2°F15.1°C 81% 1.3 mph W2.1 kmh W 3.1 mph5.0 kmh 30.03 in1016.9 mb 0.00 in0.0 mm 0.00 in0.0 mm 0.00 in0.0 mm
03:47 AM 66.7°F19.3°C 59.2°F15.1°C 81% 1.3 mph W2.1 kmh W 3.1 mph5.0 kmh 30.02 in1016.6 mb 0.00 in0.0 mm 0.00 in0.0 mm 0.00 in0.0 mm
03:37 AM 66.7°F19.3°C 59.2°F15.1°C 81% 1.3 mph W2.1 kmh W 2.5 mph4.0 kmh 30.03 in1016.9 mb 0.00 in0.0 mm 0.00 in0.0 mm 0.00 in0.0 mm
03:26 AM 66.7°F19.3°C 59.2°F15.1°C 81% 1.3 mph W2.1 kmh W 3.8 mph6.1 kmh 30.03 in1016.9 mb 0.00 in0.0 mm 0.00 in0.0 mm 0.00 in0.0 mm
03:16 AM 66.7°F19.3°C 59.2°F15.1°C 81% 1.3 mph W2.1 kmh W 2.5 mph4.0 kmh 30.03 in1016.9 mb 0.00 in0.0 mm 0.00 in0.0 mm 0.00 in0.0 mm
03:06 AM 66.7°F19.3°C 59.2°F15.1°C 81% 1.3 mph W2.1 kmh W 2.5 mph4.0 kmh 30.03 in1016.9 mb 0.00 in0.0 mm 0.00 in0.0 mm 0.00 in0.0 mm
02:56 AM 66.7°F19.3°C 59.2°F15.1°C 81% 1.3 mph SW2.1 kmh SW 2.5 mph4.0 kmh 30.03 in1016.9 mb 0.00 in0.0 mm 0.00 in0.0 mm 0.00 in0.0 mm
02:46 AM 66.7°F19.3°C 59.5°F15.3°C 82% 1.3 mph W2.1 kmh W 2.5 mph4.0 kmh 30.03 in1016.9 mb 0.00 in0.0 mm 0.00 in0.0 mm 0.00 in0.0 mm
02:36 AM 66.7°F19.3°C 59.5°F15.3°C 82% 1.3 mph W2.1 kmh W 2.5 mph4.0 kmh 30.03 in1016.9 mb 0.00 in0.0 mm 0.00 in0.0 mm 0.00 in0.0 mm
02:26 AM 66.6°F19.2°C 59.4°F15.2°C 82% 1.3 mph WSW2.1 kmh WSW 2.5 mph4.0 kmh 30.03 in1016.9 mb 0.00 in0.0 mm 0.00 in0.0 mm 0.00 in0.0 mm
02:16 AM 66.6°F19.2°C 59.9°F15.5°C 83% 1.3 mph WSW2.1 kmh WSW 3.1 mph5.0 kmh 30.03 in1016.9 mb 0.00 in0.0 mm 0.00 in0.0 mm 0.00 in0.0 mm
02:06 AM 66.6°F19.2°C 59.9°F15.5°C 83% 1.3 mph W2.1 kmh W 3.8 mph6.1 kmh 30.03 in1016.9 mb 0.00 in0.0 mm 0.00 in0.0 mm 0.00 in0.0 mm
01:56 AM 66.7°F19.3°C 60.1°F15.6°C 83% 1.3 mph WSW2.1 kmh WSW 2.5 mph4.0 kmh 30.03 in1016.9 mb 0.00 in0.0 mm 0.00 in0.0 mm 0.00 in0.0 mm
01:46 AM 66.7°F19.3°C 60.1°F15.6°C 83% 1.3 mph SW2.1 kmh SW 2.5 mph4.0 kmh 30.03 in1016.9 mb 0.00 in0.0 mm 0.00 in0.0 mm 0.00 in0.0 mm
01:35 AM 66.6°F19.2°C 59.9°F15.5°C 83% 1.3 mph SW2.1 kmh SW 2.5 mph4.0 kmh 30.03 in1016.9 mb 0.00 in0.0 mm 0.00 in0.0 mm 0.00 in0.0 mm
01:26 AM 66.6°F19.2°C 59.9°F15.5°C 83% 1.3 mph WSW2.1 kmh WSW 2.5 mph4.0 kmh 30.04 in1017.3 mb 0.00 in0.0 mm 0.00 in0.0 mm 0.00 in0.0 mm
01:16 AM 66.6°F19.2°C 59.9°F15.5°C 83% 1.3 mph WSW2.1 kmh WSW 3.1 mph5.0 kmh 30.03 in1016.9 mb 0.00 in0.0 mm 0.00 in0.0 mm 0.00 in0.0 mm
01:05 AM 66.6°F19.2°C 59.9°F15.5°C 83% 1.3 mph SW2.1 kmh SW 2.5 mph4.0 kmh 30.04 in1017.3 mb 0.00 in0.0 mm 0.00 in0.0 mm 0.00 in0.0 mm
12:55 AM 66.6°F19.2°C 59.4°F15.2°C 82% 0.7 mph SW1.1 kmh SW 2.5 mph4.0 kmh 30.03 in1016.9 mb 0.00 in0.0 mm 0.00 in0.0 mm 0.00 in0.0 mm
12:45 AM 66.6°F19.2°C 59.4°F15.2°C 82% 0.7 mph SW1.1 kmh SW 3.1 mph5.0 kmh 30.03 in1016.9 mb 0.00 in0.0 mm 0.00 in0.0 mm 0.00 in0.0 mm
12:35 AM 66.7°F19.3°C 59.5°F15.3°C 82% 1.3 mph WSW2.1 kmh WSW 2.5 mph4.0 kmh 30.03 in1016.9 mb 0.00 in0.0 mm 0.00 in0.0 mm 0.00 in0.0 mm
12:25 AM 66.7°F19.3°C 59.2°F15.1°C 81% 0.7 mph SW1.1 kmh SW 2.5 mph4.0 kmh 30.04 in1017.3 mb 0.00 in0.0 mm 0.00 in0.0 mm 0.00 in0.0 mm
12:15 AM 66.7°F19.3°C 59.2°F15.1°C 81% 0.7 mph W1.1 kmh W 2.5 mph4.0 kmh 30.03 in1016.9 mb 0.00 in0.0 mm 0.00 in0.0 mm 0.00 in0.0 mm
12:05 AM 66.9°F19.4°C 59.4°F15.2°C 81% 1.3 mph WSW2.1 kmh WSW 3.1 mph5.0 kmh 30.03 in1016.9 mb 0.00 in0.0 mm 0.00 in0.0 mm 0.00 in0.0 mm